< < Back
Terminal Aerodrome Forecast


Current Version              Previous Versions:   1  2  3  4  5  6  7  8  9  

Terminal Aerodrome Forecast

509
FTUS44 KBMX 282300
TAFBHM
TAF
KBHM 282336Z 0100/0124 11007KT P6SM BKN040
     FM010300 11006KT P6SM BKN025
     FM010600 12006KT P6SM OVC015
     FM010900 12005KT 4SM -DZ BR OVC008=

Latest METAR

558
SAUS70 KWBC 010400 RRS
MTRBHM
METAR KBHM 010353Z 13008KT 10SM OVC028 13/03 A3045 RMK AO2 SLP311
T01280033


USA.gov is the U.S. government's official web portal to all federal, state and local government web resources and services.